createdAt,value
2022-11-02T00:00:00.317Z,0.0
2022-11-02T00:05:00.275Z,0.0
2022-11-02T00:10:00.271Z,0.0
2022-11-02T00:15:00.233Z,0.0
2022-11-02T00:20:00.266Z,0.0
2022-11-02T00:25:00.314Z,0.0
2022-11-02T00:30:00.298Z,0.0
2022-11-02T00:35:00.259Z,0.0
2022-11-02T00:40:00.278Z,0.0
2022-11-02T00:45:00.242Z,0.0
2022-11-02T00:50:00.260Z,0.0
2022-11-02T00:55:00.254Z,0.0
2022-11-02T01:00:00.277Z,0.0
2022-11-02T01:05:00.236Z,0.0
2022-11-02T01:10:00.265Z,0.3
2022-11-02T01:15:00.291Z,0.0
2022-11-02T01:20:00.268Z,0.3
2022-11-02T01:25:00.239Z,0.1
2022-11-02T01:30:00.330Z,0.2
2022-11-02T01:35:00.248Z,0.4
2022-11-02T01:40:00.404Z,0.2
2022-11-02T01:45:00.245Z,0.0
2022-11-02T01:50:00.262Z,0.1
2022-11-02T01:55:00.254Z,0.2
2022-11-02T02:00:00.279Z,0.4
2022-11-02T02:05:00.222Z,0.0
2022-11-02T02:10:00.276Z,0.0
2022-11-02T02:15:00.265Z,0.0
2022-11-02T02:20:00.268Z,0.0
2022-11-02T02:25:00.284Z,0.2
2022-11-02T02:30:00.273Z,0.4
2022-11-02T02:35:00.221Z,0.0
2022-11-02T02:40:00.282Z,0.0
2022-11-02T02:45:00.434Z,0.0
2022-11-02T02:50:00.238Z,0.3
2022-11-02T02:55:00.219Z,1.8
2022-11-02T03:00:00.303Z,2.0
2022-11-02T03:05:00.327Z,1.2
2022-11-02T03:10:00.279Z,0.3
2022-11-02T03:15:00.286Z,1.4
2022-11-02T03:20:00.474Z,1.9
2022-11-02T03:25:00.255Z,2.6
2022-11-02T03:30:00.369Z,1.9
2022-11-02T03:35:00.246Z,2.6
2022-11-02T03:40:00.252Z,2.7
2022-11-02T03:45:00.230Z,1.5
2022-11-02T03:50:00.261Z,0.8
2022-11-02T03:55:00.239Z,1.1
2022-11-02T04:00:00.250Z,1.1
2022-11-02T04:05:00.261Z,0.4
2022-11-02T04:10:00.259Z,0.5
2022-11-02T04:15:00.269Z,0.4
2022-11-02T04:20:00.289Z,0.2
2022-11-02T04:25:00.287Z,0.5
2022-11-02T04:30:00.260Z,1.8
2022-11-02T04:35:00.221Z,0.9
2022-11-02T04:40:00.256Z,0.1
2022-11-02T04:45:00.272Z,0.2
2022-11-02T04:50:00.246Z,0.7
2022-11-02T04:55:00.237Z,0.0
2022-11-02T05:00:00.291Z,0.1
2022-11-02T05:05:00.264Z,1.0
2022-11-02T05:10:00.304Z,0.5
2022-11-02T05:15:00.264Z,0.1
2022-11-02T05:20:00.264Z,0.6
2022-11-02T05:25:00.235Z,0.8
2022-11-02T05:30:00.293Z,0.8
2022-11-02T05:35:00.250Z,0.1
2022-11-02T05:40:00.279Z,1.6
2022-11-02T05:45:00.240Z,3.3
2022-11-02T05:50:00.315Z,1.2
2022-11-02T05:55:00.256Z,0.2
2022-11-02T06:00:00.322Z,0.8
2022-11-02T06:05:00.448Z,0.1
2022-11-02T06:10:00.275Z,0.0
2022-11-02T06:15:00.255Z,0.0
2022-11-02T06:20:00.278Z,0.5
2022-11-02T06:25:00.359Z,0.2
2022-11-02T06:30:00.272Z,1.4
2022-11-02T06:35:00.245Z,1.0
2022-11-02T06:40:00.325Z,0.1
2022-11-02T06:45:00.245Z,1.1
2022-11-02T06:50:00.317Z,0.1
2022-11-02T06:55:00.224Z,0.4
2022-11-02T07:00:00.445Z,0.8
2022-11-02T07:05:00.245Z,2.1
2022-11-02T07:10:00.277Z,0.4
2022-11-02T07:15:00.225Z,2.4
2022-11-02T07:20:00.270Z,1.0
2022-11-02T07:25:00.230Z,1.2
2022-11-02T07:30:00.320Z,1.2
2022-11-02T07:35:00.247Z,1.9
2022-11-02T07:40:00.286Z,2.8
2022-11-02T07:45:00.259Z,3.6
2022-11-02T07:50:00.316Z,3.8
2022-11-02T07:55:00.237Z,3.0
2022-11-02T08:00:00.318Z,4.2
2022-11-02T08:05:00.254Z,3.3
2022-11-02T08:10:00.269Z,3.4
2022-11-02T08:15:07.498Z,3.2
2022-11-02T08:20:00.293Z,3.9
2022-11-02T08:25:00.572Z,2.1
2022-11-02T08:30:00.287Z,3.6
2022-11-02T08:35:00.245Z,3.6
2022-11-02T08:40:00.301Z,7.0
2022-11-02T08:45:00.232Z,2.9
2022-11-02T08:50:00.413Z,2.8
2022-11-02T08:55:00.240Z,3.4
2022-11-02T09:00:00.336Z,4.9
2022-11-02T09:05:00.218Z,5.4
2022-11-02T09:10:00.276Z,5.0
2022-11-02T09:15:00.306Z,9.1
2022-11-02T09:20:00.293Z,7.7
2022-11-02T09:25:00.233Z,6.7
2022-11-02T09:30:00.315Z,7.2
2022-11-02T09:35:00.235Z,9.3
2022-11-02T09:40:00.249Z,8.4
2022-11-02T09:45:00.276Z,10.8
2022-11-02T09:50:00.287Z,11.2
2022-11-02T09:55:00.280Z,10.3
2022-11-02T10:00:00.368Z,12.4
2022-11-02T10:05:00.279Z,8.5
2022-11-02T10:10:00.281Z,4.5
2022-11-02T10:15:00.247Z,8.1
2022-11-02T10:20:00.560Z,9.2
2022-11-02T10:25:00.215Z,12.9
2022-11-02T10:30:00.378Z,12.1
2022-11-02T10:35:26.258Z,9.5
2022-11-02T10:40:00.313Z,12.9
2022-11-02T10:45:00.230Z,12.9
2022-11-02T10:50:00.282Z,7.3
2022-11-02T10:55:00.221Z,10.9
2022-11-02T11:00:00.287Z,12.4
2022-11-02T11:05:00.278Z,13.0
2022-11-02T11:10:00.267Z,9.4
2022-11-02T11:20:07.331Z,9.7
2022-11-02T11:25:00.232Z,8.4
2022-11-02T11:30:00.290Z,10.2
2022-11-02T11:35:00.245Z,9.8
2022-11-02T11:40:00.351Z,10.9
2022-11-02T11:45:00.255Z,8.8
2022-11-02T11:50:12.949Z,10.6
2022-11-02T11:55:00.327Z,12.2
2022-11-02T12:00:00.315Z,12.9
2022-11-02T12:05:00.332Z,11.3
2022-11-02T12:10:00.251Z,9.1
2022-11-02T12:15:06.952Z,11.3
2022-11-02T12:20:00.372Z,10.4
2022-11-02T12:25:00.235Z,11.6
2022-11-02T12:30:00.295Z,9.9
2022-11-02T12:35:29.201Z,11.0
2022-11-02T12:40:00.257Z,13.9
2022-11-02T12:45:00.250Z,9.1
2022-11-02T12:50:00.257Z,9.9
2022-11-02T12:55:00.237Z,8.3
2022-11-02T13:00:00.403Z,8.5
2022-11-02T13:05:00.263Z,9.7
2022-11-02T13:10:00.283Z,10.1
2022-11-02T13:15:00.300Z,11.0
2022-11-02T13:20:00.280Z,9.0
2022-11-02T13:25:00.299Z,7.9
2022-11-02T13:30:00.292Z,9.0
2022-11-02T13:35:00.249Z,6.9
2022-11-02T13:40:00.274Z,7.4
2022-11-02T13:45:00.267Z,10.0
2022-11-02T13:50:00.268Z,7.2
2022-11-02T13:55:00.398Z,7.8
2022-11-02T14:00:00.269Z,9.5
2022-11-02T14:05:00.228Z,16.4
2022-11-02T14:10:00.283Z,12.0
2022-11-02T14:15:00.236Z,10.8
2022-11-02T14:20:00.603Z,8.7
2022-11-02T14:25:00.230Z,9.3
2022-11-02T14:30:00.295Z,11.3
2022-11-02T14:35:00.241Z,9.3
2022-11-02T14:40:00.278Z,7.5
2022-11-02T14:45:00.319Z,8.0
2022-11-02T14:50:00.265Z,6.4
2022-11-02T14:55:00.271Z,12.5
2022-11-02T15:00:00.278Z,9.9
2022-11-02T15:05:00.256Z,8.4
2022-11-02T15:10:00.388Z,9.6
2022-11-02T15:15:00.229Z,6.8
2022-11-02T15:20:00.257Z,10.8
2022-11-02T15:25:00.238Z,8.1
2022-11-02T15:30:00.318Z,6.6
2022-11-02T15:35:00.237Z,6.5
2022-11-02T15:40:00.265Z,7.5
2022-11-02T15:45:14.480Z,6.3
2022-11-02T15:50:00.271Z,5.7
2022-11-02T15:55:00.236Z,4.1
2022-11-02T16:00:00.261Z,4.8
2022-11-02T16:05:00.392Z,6.9
2022-11-02T16:10:00.269Z,4.3
2022-11-02T16:15:00.273Z,4.8
2022-11-02T16:20:00.298Z,4.2
2022-11-02T16:25:00.226Z,4.1
2022-11-02T16:30:00.305Z,3.4
2022-11-02T16:35:00.255Z,3.7
2022-11-02T16:40:00.306Z,3.8
2022-11-02T16:45:00.339Z,3.7
2022-11-02T16:50:00.340Z,6.8
2022-11-02T16:55:00.252Z,5.3
2022-11-02T17:00:00.346Z,4.9
2022-11-02T17:05:06.631Z,3.8
2022-11-02T17:10:00.294Z,2.6
2022-11-02T17:15:00.263Z,2.5
2022-11-02T17:20:00.381Z,3.0
2022-11-02T17:30:00.338Z,2.5
2022-11-02T17:35:00.253Z,1.4
2022-11-02T17:40:00.274Z,2.5
2022-11-02T17:45:00.470Z,5.1
2022-11-02T17:50:00.279Z,2.7
2022-11-02T17:55:00.285Z,1.8
2022-11-02T18:00:00.497Z,2.3
2022-11-02T18:05:00.315Z,0.5
2022-11-02T18:10:00.665Z,0.6
2022-11-02T18:15:00.328Z,1.2
2022-11-02T18:20:00.556Z,1.8
2022-11-02T18:25:00.339Z,0.6
2022-11-02T18:30:00.615Z,0.8
2022-11-02T18:35:00.306Z,0.5
2022-11-02T18:40:00.334Z,1.7
2022-11-02T18:45:00.333Z,0.7
2022-11-02T18:50:00.361Z,0.5
2022-11-02T18:55:00.879Z,1.4
2022-11-02T19:00:00.345Z,1.3
2022-11-02T19:05:00.274Z,1.0
2022-11-02T19:10:04.325Z,0.8
2022-11-02T19:15:00.417Z,0.3
2022-11-02T19:20:00.330Z,0.6
2022-11-02T19:25:00.558Z,0.0
2022-11-02T19:30:00.415Z,0.2
2022-11-02T19:35:00.302Z,0.0
2022-11-02T19:40:00.276Z,0.3
2022-11-02T19:45:00.265Z,0.2
2022-11-02T19:50:00.311Z,0.0
2022-11-02T19:55:00.251Z,0.0
2022-11-02T20:00:00.273Z,0.0
2022-11-02T20:05:00.243Z,0.0
2022-11-02T20:10:00.295Z,0.0
2022-11-02T20:15:00.228Z,0.0
2022-11-02T20:20:00.444Z,0.0
2022-11-02T20:25:00.257Z,0.0
2022-11-02T20:30:00.272Z,0.0
2022-11-02T20:35:00.216Z,0.1
2022-11-02T20:40:00.255Z,0.3
2022-11-02T20:45:00.243Z,0.0
2022-11-02T20:50:00.280Z,0.4
2022-11-02T20:55:00.235Z,0.2
2022-11-02T21:00:00.291Z,0.0
2022-11-02T21:05:00.233Z,0.0
2022-11-02T21:10:00.468Z,0.0
2022-11-02T21:15:00.258Z,0.0
2022-11-02T21:20:33.505Z,0.3
2022-11-02T21:25:00.219Z,0.1
2022-11-02T21:30:00.258Z,0.1
2022-11-02T21:35:00.320Z,0.9
2022-11-02T21:40:00.280Z,1.4
2022-11-02T21:45:00.237Z,0.0
2022-11-02T21:50:00.310Z,0.0
2022-11-02T21:55:00.258Z,0.0
2022-11-02T22:00:00.294Z,0.0
2022-11-02T22:05:00.230Z,0.5
2022-11-02T22:10:00.273Z,0.9
2022-11-02T22:15:00.282Z,0.1
2022-11-02T22:20:00.260Z,0.0
2022-11-02T22:25:00.242Z,0.0
2022-11-02T22:30:00.318Z,0.1
2022-11-02T22:35:00.287Z,1.0
2022-11-02T22:40:00.244Z,0.0
2022-11-02T22:45:00.284Z,0.0
2022-11-02T22:50:00.284Z,0.0
2022-11-02T22:55:00.439Z,0.3
2022-11-02T23:00:00.313Z,0.3
2022-11-02T23:05:00.218Z,0.1
2022-11-02T23:10:00.272Z,0.1
2022-11-02T23:15:00.264Z,0.2
2022-11-02T23:20:00.274Z,0.0
2022-11-02T23:25:00.325Z,0.0
2022-11-02T23:30:00.286Z,0.0
2022-11-02T23:35:00.232Z,0.0
2022-11-02T23:40:00.258Z,0.0
2022-11-02T23:45:00.472Z,0.0
2022-11-02T23:50:00.240Z,0.0
2022-11-02T23:55:00.241Z,0.0
